createdAt,value
2023-06-30T00:21:28.740Z,13.30
2023-06-30T00:43:11.822Z,11.70
2023-06-30T01:05:03.825Z,11.60
2023-06-30T01:26:50.125Z,8.50
2023-06-30T01:48:34.552Z,8.40
2023-06-30T02:10:17.791Z,9.50
2023-06-30T02:32:01.069Z,10.20
2023-06-30T02:53:44.546Z,9.20
2023-06-30T03:15:27.796Z,11.10
2023-06-30T03:37:11.403Z,12.80
2023-06-30T03:58:54.724Z,14.90
2023-06-30T04:20:38.586Z,14.30
2023-06-30T04:42:21.636Z,11.70
2023-06-30T05:04:04.930Z,13.00
2023-06-30T05:25:47.997Z,11.50
2023-06-30T05:47:31.112Z,14.60
2023-06-30T06:09:14.274Z,13.40
2023-06-30T06:30:57.396Z,16.30
2023-06-30T06:52:40.622Z,12.70
2023-06-30T07:14:23.679Z,11.30
2023-06-30T07:36:07.343Z,12.10
2023-06-30T07:57:51.706Z,7.80
2023-06-30T08:19:47.816Z,14.20
2023-06-30T08:41:33.721Z,8.80
2023-06-30T09:03:17.179Z,10.60
2023-06-30T09:25:00.738Z,9.90
2023-06-30T09:46:47.276Z,11.70
2023-06-30T10:08:31.988Z,7.60
2023-06-30T10:30:16.896Z,9.50
2023-06-30T10:52:04.163Z,11.70
2023-06-30T11:13:50.620Z,11.10
2023-06-30T11:35:35.426Z,15.40
2023-06-30T11:57:18.510Z,7.90
2023-06-30T12:19:07.456Z,8.90
2023-06-30T12:40:52.133Z,11.30
2023-06-30T13:02:36.795Z,8.00
2023-06-30T13:24:19.941Z,10.10
2023-06-30T13:46:03.075Z,10.10
2023-06-30T14:07:46.129Z,9.90
2023-06-30T14:29:29.293Z,8.40
2023-06-30T14:51:12.346Z,11.20
2023-06-30T15:12:55.441Z,9.10
2023-06-30T15:34:38.464Z,10.90
2023-06-30T15:56:22.554Z,19.70
2023-06-30T16:18:05.647Z,13.90
2023-06-30T16:39:48.749Z,16.60
2023-06-30T17:01:32.006Z,12.70
2023-06-30T17:23:15.416Z,11.00
2023-06-30T17:44:58.429Z,14.10
2023-06-30T18:07:00.194Z,13.60
2023-06-30T18:28:43.375Z,13.10
2023-06-30T18:50:26.492Z,12.60
2023-06-30T19:12:11.179Z,15.50
2023-06-30T19:33:54.486Z,13.20
2023-06-30T19:55:37.584Z,16.80
2023-06-30T20:17:20.685Z,15.80
2023-06-30T20:39:06.425Z,16.40
2023-06-30T21:00:49.642Z,14.00
2023-06-30T21:22:35.205Z,16.10
2023-06-30T21:44:18.382Z,16.80
2023-06-30T22:06:02.049Z,17.80
2023-06-30T22:27:45.225Z,18.20
2023-06-30T22:49:28.256Z,17.10
2023-06-30T23:11:11.474Z,15.30
2023-06-30T23:32:57.717Z,19.60
2023-06-30T23:54:44.185Z,25.00
